sensor_id;sensor_type;location;lat;lon;timestamp;temperature;humidity
18291;DHT22;9271;48.590;8.866;2023-01-26T00:00:49;4.00;99.90
18291;DHT22;9271;48.590;8.866;2023-01-26T00:03:16;3.90;99.90
18291;DHT22;9271;48.590;8.866;2023-01-26T00:05:43;3.80;99.90
18291;DHT22;9271;48.590;8.866;2023-01-26T00:08:11;3.90;99.90
18291;DHT22;9271;48.590;8.866;2023-01-26T00:10:38;3.90;99.90
18291;DHT22;9271;48.590;8.866;2023-01-26T00:13:09;4.10;99.90
18291;DHT22;9271;48.590;8.866;2023-01-26T00:15:37;4.10;99.90
18291;DHT22;9271;48.590;8.866;2023-01-26T00:18:04;3.90;99.90
18291;DHT22;9271;48.590;8.866;2023-01-26T00:20:31;4.00;99.90
18291;DHT22;9271;48.590;8.866;2023-01-26T00:22:57;3.90;99.90
18291;DHT22;9271;48.590;8.866;2023-01-26T00:25:24;3.70;99.90
18291;DHT22;9271;48.590;8.866;2023-01-26T00:27:50;3.40;99.90
18291;DHT22;9271;48.590;8.866;2023-01-26T00:30:17;3.50;99.90
18291;DHT22;9271;48.590;8.866;2023-01-26T00:32:46;3.70;99.90
18291;DHT22;9271;48.590;8.866;2023-01-26T00:35:13;3.80;99.90
18291;DHT22;9271;48.590;8.866;2023-01-26T00:37:40;3.80;99.90
18291;DHT22;9271;48.590;8.866;2023-01-26T00:40:08;3.80;99.90
18291;DHT22;9271;48.590;8.866;2023-01-26T00:42:34;3.90;99.90
18291;DHT22;9271;48.590;8.866;2023-01-26T00:45:01;3.70;99.90
18291;DHT22;9271;48.590;8.866;2023-01-26T00:47:28;3.50;99.90
18291;DHT22;9271;48.590;8.866;2023-01-26T00:49:56;3.20;99.90
18291;DHT22;9271;48.590;8.866;2023-01-26T00:52:23;3.20;99.90
18291;DHT22;9271;48.590;8.866;2023-01-26T00:54:49;3.30;99.90
18291;DHT22;9271;48.590;8.866;2023-01-26T00:57:16;3.00;99.90
18291;DHT22;9271;48.590;8.866;2023-01-26T00:59:42;2.80;99.90
18291;DHT22;9271;48.590;8.866;2023-01-26T01:02:09;2.60;99.90
18291;DHT22;9271;48.590;8.866;2023-01-26T01:04:36;2.30;99.90
18291;DHT22;9271;48.590;8.866;2023-01-26T01:07:04;2.20;99.90
18291;DHT22;9271;48.590;8.866;2023-01-26T01:09:30;2.60;99.90
18291;DHT22;9271;48.590;8.866;2023-01-26T01:11:57;2.90;99.90
18291;DHT22;9271;48.590;8.866;2023-01-26T01:14:24;3.00;99.90
18291;DHT22;9271;48.590;8.866;2023-01-26T01:16:50;2.80;99.90
18291;DHT22;9271;48.590;8.866;2023-01-26T01:19:17;3.00;99.90
18291;DHT22;9271;48.590;8.866;2023-01-26T01:21:44;3.00;99.90
18291;DHT22;9271;48.590;8.866;2023-01-26T01:24:12;3.00;99.90
18291;DHT22;9271;48.590;8.866;2023-01-26T01:26:39;2.90;99.90
18291;DHT22;9271;48.590;8.866;2023-01-26T01:29:06;3.20;99.90
18291;DHT22;9271;48.590;8.866;2023-01-26T01:31:32;3.50;99.90
18291;DHT22;9271;48.590;8.866;2023-01-26T01:33:59;3.60;99.90
18291;DHT22;9271;48.590;8.866;2023-01-26T01:36:26;3.60;99.90
18291;DHT22;9271;48.590;8.866;2023-01-26T01:38:53;3.50;99.90
18291;DHT22;9271;48.590;8.866;2023-01-26T01:41:21;3.40;99.90
18291;DHT22;9271;48.590;8.866;2023-01-26T01:43:48;3.20;99.90
18291;DHT22;9271;48.590;8.866;2023-01-26T01:46:19;3.40;99.90
18291;DHT22;9271;48.590;8.866;2023-01-26T01:48:54;2.90;99.90
18291;DHT22;9271;48.590;8.866;2023-01-26T01:51:30;3.00;99.90
18291;DHT22;9271;48.590;8.866;2023-01-26T01:54:01;3.30;99.90
18291;DHT22;9271;48.590;8.866;2023-01-26T01:56:31;3.10;99.90
18291;DHT22;9271;48.590;8.866;2023-01-26T01:59:02;3.20;99.90
18291;DHT22;9271;48.590;8.866;2023-01-26T02:01:29;3.20;99.90
18291;DHT22;9271;48.590;8.866;2023-01-26T02:03:59;2.90;99.90
18291;DHT22;9271;48.590;8.866;2023-01-26T02:06:29;3.10;99.90
18291;DHT22;9271;48.590;8.866;2023-01-26T02:08:57;3.50;99.90
18291;DHT22;9271;48.590;8.866;2023-01-26T02:11:26;3.70;99.90
18291;DHT22;9271;48.590;8.866;2023-01-26T02:13:55;3.70;99.90
18291;DHT22;9271;48.590;8.866;2023-01-26T02:16:23;3.70;99.90
18291;DHT22;9271;48.590;8.866;2023-01-26T02:18:50;3.70;99.90
18291;DHT22;9271;48.590;8.866;2023-01-26T02:21:18;3.70;99.90
18291;DHT22;9271;48.590;8.866;2023-01-26T02:23:53;3.70;99.90
18291;DHT22;9271;48.590;8.866;2023-01-26T02:26:25;3.50;99.90
18291;DHT22;9271;48.590;8.866;2023-01-26T02:28:52;3.10;99.90
18291;DHT22;9271;48.590;8.866;2023-01-26T02:31:19;2.70;99.90
18291;DHT22;9271;48.590;8.866;2023-01-26T02:33:47;2.50;99.90
18291;DHT22;9271;48.590;8.866;2023-01-26T02:36:18;2.50;99.90
18291;DHT22;9271;48.590;8.866;2023-01-26T02:38:50;2.40;99.90
18291;DHT22;9271;48.590;8.866;2023-01-26T02:41:19;2.40;99.90
18291;DHT22;9271;48.590;8.866;2023-01-26T02:44:01;2.30;99.90
18291;DHT22;9271;48.590;8.866;2023-01-26T02:46:29;2.40;99.90
18291;DHT22;9271;48.590;8.866;2023-01-26T02:48:56;2.70;99.90
18291;DHT22;9271;48.590;8.866;2023-01-26T02:51:40;2.60;99.90
18291;DHT22;9271;48.590;8.866;2023-01-26T02:54:07;2.90;99.90
18291;DHT22;9271;48.590;8.866;2023-01-26T02:56:33;2.20;99.90
18291;DHT22;9271;48.590;8.866;2023-01-26T02:59:05;2.00;99.90
18291;DHT22;9271;48.590;8.866;2023-01-26T03:01:32;1.90;99.90
18291;DHT22;9271;48.590;8.866;2023-01-26T03:03:58;2.20;99.90
18291;DHT22;9271;48.590;8.866;2023-01-26T03:06:25;2.30;99.90
18291;DHT22;9271;48.590;8.866;2023-01-26T03:08:51;2.40;99.90
18291;DHT22;9271;48.590;8.866;2023-01-26T03:11:18;2.20;99.90
18291;DHT22;9271;48.590;8.866;2023-01-26T03:13:45;2.50;99.90
18291;DHT22;9271;48.590;8.866;2023-01-26T03:16:13;2.90;99.90
18291;DHT22;9271;48.590;8.866;2023-01-26T03:18:43;2.90;99.90
18291;DHT22;9271;48.590;8.866;2023-01-26T03:21:27;2.70;99.90
18291;DHT22;9271;48.590;8.866;2023-01-26T03:24:12;2.60;99.90
18291;DHT22;9271;48.590;8.866;2023-01-26T03:26:57;2.70;99.90
18291;DHT22;9271;48.590;8.866;2023-01-26T03:29:41;2.30;99.90
18291;DHT22;9271;48.590;8.866;2023-01-26T03:32:09;2.50;99.90
18291;DHT22;9271;48.590;8.866;2023-01-26T03:34:36;2.70;99.90
18291;DHT22;9271;48.590;8.866;2023-01-26T03:37:03;2.90;99.90
18291;DHT22;9271;48.590;8.866;2023-01-26T03:39:29;3.30;99.90
18291;DHT22;9271;48.590;8.866;2023-01-26T03:42:14;3.20;99.90
18291;DHT22;9271;48.590;8.866;2023-01-26T03:44:58;3.30;99.90
18291;DHT22;9271;48.590;8.866;2023-01-26T03:47:43;3.40;99.90
18291;DHT22;9271;48.590;8.866;2023-01-26T03:50:27;3.50;99.90
18291;DHT22;9271;48.590;8.866;2023-01-26T03:53:13;3.30;99.90
18291;DHT22;9271;48.590;8.866;2023-01-26T03:55:57;3.30;99.90
18291;DHT22;9271;48.590;8.866;2023-01-26T03:58:42;3.10;99.90
18291;DHT22;9271;48.590;8.866;2023-01-26T04:01:09;3.10;99.90
18291;DHT22;9271;48.590;8.866;2023-01-26T04:03:48;2.90;99.90
18291;DHT22;9271;48.590;8.866;2023-01-26T04:06:33;2.90;99.90
18291;DHT22;9271;48.590;8.866;2023-01-26T04:09:17;2.90;99.90
18291;DHT22;9271;48.590;8.866;2023-01-26T04:11:44;3.00;99.90
18291;DHT22;9271;48.590;8.866;2023-01-26T04:14:12;3.20;99.90
18291;DHT22;9271;48.590;8.866;2023-01-26T04:16:57;3.40;99.90
18291;DHT22;9271;48.590;8.866;2023-01-26T04:19:42;3.40;99.90
18291;DHT22;9271;48.590;8.866;2023-01-26T04:22:26;3.50;99.90
18291;DHT22;9271;48.590;8.866;2023-01-26T04:24:53;3.60;99.90
18291;DHT22;9271;48.590;8.866;2023-01-26T04:27:21;3.60;99.90
18291;DHT22;9271;48.590;8.866;2023-01-26T04:29:48;3.60;99.90
18291;DHT22;9271;48.590;8.866;2023-01-26T04:32:15;3.40;99.90
18291;DHT22;9271;48.590;8.866;2023-01-26T04:34:43;3.30;99.90
18291;DHT22;9271;48.590;8.866;2023-01-26T04:39:39;3.40;99.90
18291;DHT22;9271;48.590;8.866;2023-01-26T04:42:05;3.60;99.90
18291;DHT22;9271;48.590;8.866;2023-01-26T04:44:32;3.70;99.90
18291;DHT22;9271;48.590;8.866;2023-01-26T04:46:58;3.70;99.90
18291;DHT22;9271;48.590;8.866;2023-01-26T04:49:25;3.70;99.90
18291;DHT22;9271;48.590;8.866;2023-01-26T04:51:53;3.60;99.90
18291;DHT22;9271;48.590;8.866;2023-01-26T04:54:20;3.40;99.90
18291;DHT22;9271;48.590;8.866;2023-01-26T04:56:47;3.40;99.90
18291;DHT22;9271;48.590;8.866;2023-01-26T04:59:14;3.50;99.90
18291;DHT22;9271;48.590;8.866;2023-01-26T05:01:40;3.50;99.90
18291;DHT22;9271;48.590;8.866;2023-01-26T05:04:09;3.40;99.90
18291;DHT22;9271;48.590;8.866;2023-01-26T05:06:37;3.40;99.90
18291;DHT22;9271;48.590;8.866;2023-01-26T05:09:05;3.30;99.90
18291;DHT22;9271;48.590;8.866;2023-01-26T05:11:31;3.20;99.90
18291;DHT22;9271;48.590;8.866;2023-01-26T05:13:58;3.40;99.90
18291;DHT22;9271;48.590;8.866;2023-01-26T05:16:25;3.60;99.90
18291;DHT22;9271;48.590;8.866;2023-01-26T05:18:52;3.70;99.90
18291;DHT22;9271;48.590;8.866;2023-01-26T05:21:19;3.70;99.90
18291;DHT22;9271;48.590;8.866;2023-01-26T05:23:48;3.50;99.90
18291;DHT22;9271;48.590;8.866;2023-01-26T05:26:16;3.60;99.90
18291;DHT22;9271;48.590;8.866;2023-01-26T05:28:43;3.50;99.90
18291;DHT22;9271;48.590;8.866;2023-01-26T05:31:10;3.50;99.90
18291;DHT22;9271;48.590;8.866;2023-01-26T05:33:36;3.60;99.90
18291;DHT22;9271;48.590;8.866;2023-01-26T05:36:05;3.70;99.90
18291;DHT22;9271;48.590;8.866;2023-01-26T05:38:32;3.80;99.90
18291;DHT22;9271;48.590;8.866;2023-01-26T05:40:59;3.90;99.90
18291;DHT22;9271;48.590;8.866;2023-01-26T05:43:26;3.90;99.80
18291;DHT22;9271;48.590;8.866;2023-01-26T05:45:53;4.00;99.50
18291;DHT22;9271;48.590;8.866;2023-01-26T05:48:20;4.00;99.80
18291;DHT22;9271;48.590;8.866;2023-01-26T05:50:46;4.00;99.80
18291;DHT22;9271;48.590;8.866;2023-01-26T05:53:13;4.00;99.80
18291;DHT22;9271;48.590;8.866;2023-01-26T05:55:40;4.00;99.70
18291;DHT22;9271;48.590;8.866;2023-01-26T05:58:06;3.90;99.90
18291;DHT22;9271;48.590;8.866;2023-01-26T06:00:34;3.80;99.90
18291;DHT22;9271;48.590;8.866;2023-01-26T06:03:01;3.80;99.90
18291;DHT22;9271;48.590;8.866;2023-01-26T06:05:27;3.70;99.90
18291;DHT22;9271;48.590;8.866;2023-01-26T06:07:54;3.90;99.90
18291;DHT22;9271;48.590;8.866;2023-01-26T06:10:21;3.90;99.90
18291;DHT22;9271;48.590;8.866;2023-01-26T06:12:47;4.00;99.70
18291;DHT22;9271;48.590;8.866;2023-01-26T06:15:14;3.90;99.80
18291;DHT22;9271;48.590;8.866;2023-01-26T06:17:42;3.90;99.90
18291;DHT22;9271;48.590;8.866;2023-01-26T06:20:09;3.80;99.90
18291;DHT22;9271;48.590;8.866;2023-01-26T06:22:36;3.80;99.90
18291;DHT22;9271;48.590;8.866;2023-01-26T06:25:03;3.80;99.90
18291;DHT22;9271;48.590;8.866;2023-01-26T06:27:30;3.80;99.90
18291;DHT22;9271;48.590;8.866;2023-01-26T06:29:58;3.90;99.60
18291;DHT22;9271;48.590;8.866;2023-01-26T06:32:25;3.90;99.50
18291;DHT22;9271;48.590;8.866;2023-01-26T06:34:53;3.90;99.40
18291;DHT22;9271;48.590;8.866;2023-01-26T06:37:20;3.80;99.50
18291;DHT22;9271;48.590;8.866;2023-01-26T06:39:47;3.80;99.30
18291;DHT22;9271;48.590;8.866;2023-01-26T06:42:13;3.80;99.50
18291;DHT22;9271;48.590;8.866;2023-01-26T06:44:40;3.80;99.40
18291;DHT22;9271;48.590;8.866;2023-01-26T06:47:06;3.80;99.50
18291;DHT22;9271;48.590;8.866;2023-01-26T06:49:33;3.70;99.80
18291;DHT22;9271;48.590;8.866;2023-01-26T06:52:04;3.70;99.90
18291;DHT22;9271;48.590;8.866;2023-01-26T06:54:42;3.80;99.70
18291;DHT22;9271;48.590;8.866;2023-01-26T06:57:08;3.70;99.70
18291;DHT22;9271;48.590;8.866;2023-01-26T06:59:35;3.70;99.70
18291;DHT22;9271;48.590;8.866;2023-01-26T07:02:01;3.70;99.80
18291;DHT22;9271;48.590;8.866;2023-01-26T07:04:28;3.80;99.90
18291;DHT22;9271;48.590;8.866;2023-01-26T07:06:55;3.80;99.90
18291;DHT22;9271;48.590;8.866;2023-01-26T07:09:23;3.80;99.60
18291;DHT22;9271;48.590;8.866;2023-01-26T07:11:49;3.90;99.50
18291;DHT22;9271;48.590;8.866;2023-01-26T07:14:16;4.00;99.40
18291;DHT22;9271;48.590;8.866;2023-01-26T07:16:42;4.00;99.20
18291;DHT22;9271;48.590;8.866;2023-01-26T07:19:09;3.80;99.10
18291;DHT22;9271;48.590;8.866;2023-01-26T07:21:36;3.90;99.00
18291;DHT22;9271;48.590;8.866;2023-01-26T07:24:04;3.90;98.80
18291;DHT22;9271;48.590;8.866;2023-01-26T07:26:32;3.80;98.70
18291;DHT22;9271;48.590;8.866;2023-01-26T07:28:59;3.70;98.70
18291;DHT22;9271;48.590;8.866;2023-01-26T07:31:25;3.70;98.70
18291;DHT22;9271;48.590;8.866;2023-01-26T07:33:52;3.80;98.70
18291;DHT22;9271;48.590;8.866;2023-01-26T07:36:18;3.90;98.40
18291;DHT22;9271;48.590;8.866;2023-01-26T07:38:46;4.10;98.50
18291;DHT22;9271;48.590;8.866;2023-01-26T07:41:12;4.30;98.40
18291;DHT22;9271;48.590;8.866;2023-01-26T07:43:40;4.10;98.40
18291;DHT22;9271;48.590;8.866;2023-01-26T07:46:07;4.10;98.60
18291;DHT22;9271;48.590;8.866;2023-01-26T07:48:35;4.20;98.50
18291;DHT22;9271;48.590;8.866;2023-01-26T07:51:03;4.10;98.80
18291;DHT22;9271;48.590;8.866;2023-01-26T07:53:31;4.10;99.10
18291;DHT22;9271;48.590;8.866;2023-01-26T07:56:06;4.20;98.90
18291;DHT22;9271;48.590;8.866;2023-01-26T07:58:33;4.10;98.90
18291;DHT22;9271;48.590;8.866;2023-01-26T08:01:06;4.10;99.20
18291;DHT22;9271;48.590;8.866;2023-01-26T08:03:33;4.10;99.20
18291;DHT22;9271;48.590;8.866;2023-01-26T08:05:59;4.10;99.20
18291;DHT22;9271;48.590;8.866;2023-01-26T08:08:26;4.10;99.40
18291;DHT22;9271;48.590;8.866;2023-01-26T08:10:55;4.00;99.20
18291;DHT22;9271;48.590;8.866;2023-01-26T08:13:22;3.80;99.70
18291;DHT22;9271;48.590;8.866;2023-01-26T08:15:50;3.80;99.90
18291;DHT22;9271;48.590;8.866;2023-01-26T08:18:18;3.70;99.90
18291;DHT22;9271;48.590;8.866;2023-01-26T08:20:49;3.80;99.90
18291;DHT22;9271;48.590;8.866;2023-01-26T08:23:16;3.80;99.90
18291;DHT22;9271;48.590;8.866;2023-01-26T08:25:42;3.80;99.60
18291;DHT22;9271;48.590;8.866;2023-01-26T08:28:09;3.80;99.90
18291;DHT22;9271;48.590;8.866;2023-01-26T08:30:36;4.10;99.60
18291;DHT22;9271;48.590;8.866;2023-01-26T08:33:03;4.20;99.60
18291;DHT22;9271;48.590;8.866;2023-01-26T08:35:31;4.20;99.40
18291;DHT22;9271;48.590;8.866;2023-01-26T08:37:58;4.00;99.70
18291;DHT22;9271;48.590;8.866;2023-01-26T08:40:25;4.00;99.70
18291;DHT22;9271;48.590;8.866;2023-01-26T08:42:52;4.00;99.70
18291;DHT22;9271;48.590;8.866;2023-01-26T08:45:19;4.00;99.30
18291;DHT22;9271;48.590;8.866;2023-01-26T08:47:48;4.00;99.50
18291;DHT22;9271;48.590;8.866;2023-01-26T08:50:15;4.10;99.20
18291;DHT22;9271;48.590;8.866;2023-01-26T08:52:43;4.10;99.40
18291;DHT22;9271;48.590;8.866;2023-01-26T08:55:10;4.20;99.50
18291;DHT22;9271;48.590;8.866;2023-01-26T08:57:37;4.30;99.20
18291;DHT22;9271;48.590;8.866;2023-01-26T09:00:04;4.50;99.00
18291;DHT22;9271;48.590;8.866;2023-01-26T09:02:31;4.50;98.80
18291;DHT22;9271;48.590;8.866;2023-01-26T09:04:58;4.50;98.70
18291;DHT22;9271;48.590;8.866;2023-01-26T09:07:24;4.50;98.60
18291;DHT22;9271;48.590;8.866;2023-01-26T09:09:53;4.50;98.60
18291;DHT22;9271;48.590;8.866;2023-01-26T09:12:19;4.50;98.70
18291;DHT22;9271;48.590;8.866;2023-01-26T09:14:46;4.50;98.50
18291;DHT22;9271;48.590;8.866;2023-01-26T09:17:12;4.40;98.50
18291;DHT22;9271;48.590;8.866;2023-01-26T09:19:39;4.20;98.50
18291;DHT22;9271;48.590;8.866;2023-01-26T09:22:06;4.40;98.90
18291;DHT22;9271;48.590;8.866;2023-01-26T09:24:32;4.40;98.50
18291;DHT22;9271;48.590;8.866;2023-01-26T09:27:00;4.40;98.50
18291;DHT22;9271;48.590;8.866;2023-01-26T09:29:27;4.50;98.50
18291;DHT22;9271;48.590;8.866;2023-01-26T09:31:54;4.40;98.60
18291;DHT22;9271;48.590;8.866;2023-01-26T09:34:20;4.40;98.60
18291;DHT22;9271;48.590;8.866;2023-01-26T09:36:49;4.20;98.80
18291;DHT22;9271;48.590;8.866;2023-01-26T09:39:16;4.20;98.80
18291;DHT22;9271;48.590;8.866;2023-01-26T09:41:50;4.20;98.70
18291;DHT22;9271;48.590;8.866;2023-01-26T09:44:24;4.20;99.00
18291;DHT22;9271;48.590;8.866;2023-01-26T09:47:01;3.90;99.00
18291;DHT22;9271;48.590;8.866;2023-01-26T09:49:41;4.00;99.40
18291;DHT22;9271;48.590;8.866;2023-01-26T09:52:15;4.20;99.40
18291;DHT22;9271;48.590;8.866;2023-01-26T09:54:47;4.20;99.20
18291;DHT22;9271;48.590;8.866;2023-01-26T09:57:17;4.30;98.80
18291;DHT22;9271;48.590;8.866;2023-01-26T09:59:49;4.30;98.40
18291;DHT22;9271;48.590;8.866;2023-01-26T10:02:32;4.40;98.30
18291;DHT22;9271;48.590;8.866;2023-01-26T10:05:06;4.30;98.20
18291;DHT22;9271;48.590;8.866;2023-01-26T10:07:35;4.00;98.50
18291;DHT22;9271;48.590;8.866;2023-01-26T10:10:02;4.00;98.50
18291;DHT22;9271;48.590;8.866;2023-01-26T10:12:31;4.10;98.50
18291;DHT22;9271;48.590;8.866;2023-01-26T10:15:04;4.00;98.30
18291;DHT22;9271;48.590;8.866;2023-01-26T10:17:34;4.00;98.50
18291;DHT22;9271;48.590;8.866;2023-01-26T10:20:05;4.00;98.70
18291;DHT22;9271;48.590;8.866;2023-01-26T10:22:37;4.10;98.50
18291;DHT22;9271;48.590;8.866;2023-01-26T10:25:14;4.10;98.80
18291;DHT22;9271;48.590;8.866;2023-01-26T10:27:41;3.90;98.70
18291;DHT22;9271;48.590;8.866;2023-01-26T10:30:14;4.00;98.60
18291;DHT22;9271;48.590;8.866;2023-01-26T10:32:42;4.30;98.60
18291;DHT22;9271;48.590;8.866;2023-01-26T10:35:15;4.30;98.30
18291;DHT22;9271;48.590;8.866;2023-01-26T10:37:42;4.30;98.20
18291;DHT22;9271;48.590;8.866;2023-01-26T10:40:09;4.20;97.80
18291;DHT22;9271;48.590;8.866;2023-01-26T10:42:37;4.00;98.20
18291;DHT22;9271;48.590;8.866;2023-01-26T10:45:06;3.80;98.60
18291;DHT22;9271;48.590;8.866;2023-01-26T10:47:34;4.00;98.40
18291;DHT22;9271;48.590;8.866;2023-01-26T10:50:20;4.20;98.20
18291;DHT22;9271;48.590;8.866;2023-01-26T10:52:57;3.80;98.00
18291;DHT22;9271;48.590;8.866;2023-01-26T10:55:24;3.50;98.70
18291;DHT22;9271;48.590;8.866;2023-01-26T10:57:51;3.70;98.50
18291;DHT22;9271;48.590;8.866;2023-01-26T11:00:26;3.60;98.40
18291;DHT22;9271;48.590;8.866;2023-01-26T11:03:02;3.50;98.70
18291;DHT22;9271;48.590;8.866;2023-01-26T11:05:30;3.60;98.80
18291;DHT22;9271;48.590;8.866;2023-01-26T11:07:57;3.60;98.60
18291;DHT22;9271;48.590;8.866;2023-01-26T11:10:27;3.60;98.40
18291;DHT22;9271;48.590;8.866;2023-01-26T11:13:14;3.70;98.50
18291;DHT22;9271;48.590;8.866;2023-01-26T11:15:44;3.80;97.90
18291;DHT22;9271;48.590;8.866;2023-01-26T11:18:21;3.90;97.80
18291;DHT22;9271;48.590;8.866;2023-01-26T11:20:55;3.50;98.20
18291;DHT22;9271;48.590;8.866;2023-01-26T11:23:37;3.70;98.00
18291;DHT22;9271;48.590;8.866;2023-01-26T11:26:35;3.70;97.90
18291;DHT22;9271;48.590;8.866;2023-01-26T11:29:23;3.80;97.80
18291;DHT22;9271;48.590;8.866;2023-01-26T11:32:00;4.00;97.80
18291;DHT22;9271;48.590;8.866;2023-01-26T11:34:36;4.00;97.50
18291;DHT22;9271;48.590;8.866;2023-01-26T11:37:38;3.90;97.60
18291;DHT22;9271;48.590;8.866;2023-01-26T11:40:22;4.00;98.00
18291;DHT22;9271;48.590;8.866;2023-01-26T11:43:02;4.10;97.50
18291;DHT22;9271;48.590;8.866;2023-01-26T11:45:36;4.10;97.50
18291;DHT22;9271;48.590;8.866;2023-01-26T11:48:19;4.10;97.00
18291;DHT22;9271;48.590;8.866;2023-01-26T11:50:54;4.00;97.00
18291;DHT22;9271;48.590;8.866;2023-01-26T11:53:43;4.00;97.30
18291;DHT22;9271;48.590;8.866;2023-01-26T11:56:24;3.80;97.90
18291;DHT22;9271;48.590;8.866;2023-01-26T11:58:59;3.70;98.10
18291;DHT22;9271;48.590;8.866;2023-01-26T12:01:30;3.60;98.30
18291;DHT22;9271;48.590;8.866;2023-01-26T12:03:58;3.70;98.30
18291;DHT22;9271;48.590;8.866;2023-01-26T12:06:30;3.80;98.20
18291;DHT22;9271;48.590;8.866;2023-01-26T12:09:01;3.90;98.30
18291;DHT22;9271;48.590;8.866;2023-01-26T12:11:30;3.90;98.10
18291;DHT22;9271;48.590;8.866;2023-01-26T12:14:22;3.80;98.10
18291;DHT22;9271;48.590;8.866;2023-01-26T12:17:07;3.80;98.50
18291;DHT22;9271;48.590;8.866;2023-01-26T12:19:42;3.70;98.40
18291;DHT22;9271;48.590;8.866;2023-01-26T12:22:17;3.80;98.10
18291;DHT22;9271;48.590;8.866;2023-01-26T12:24:50;3.80;98.20
18291;DHT22;9271;48.590;8.866;2023-01-26T12:27:22;3.60;98.40
18291;DHT22;9271;48.590;8.866;2023-01-26T12:29:55;3.50;98.90
18291;DHT22;9271;48.590;8.866;2023-01-26T12:32:25;3.50;99.10
18291;DHT22;9271;48.590;8.866;2023-01-26T12:34:51;3.60;99.20
18291;DHT22;9271;48.590;8.866;2023-01-26T12:37:35;3.70;98.70
18291;DHT22;9271;48.590;8.866;2023-01-26T12:40:17;3.60;98.70
18291;DHT22;9271;48.590;8.866;2023-01-26T12:42:50;3.40;99.20
18291;DHT22;9271;48.590;8.866;2023-01-26T12:45:21;3.20;99.20
18291;DHT22;9271;48.590;8.866;2023-01-26T12:47:54;3.30;99.20
18291;DHT22;9271;48.590;8.866;2023-01-26T12:50:26;3.30;99.50
18291;DHT22;9271;48.590;8.866;2023-01-26T12:53:00;3.40;99.30
18291;DHT22;9271;48.590;8.866;2023-01-26T12:55:35;3.60;99.00
18291;DHT22;9271;48.590;8.866;2023-01-26T12:58:08;3.80;99.10
18291;DHT22;9271;48.590;8.866;2023-01-26T13:00:37;3.80;98.30
18291;DHT22;9271;48.590;8.866;2023-01-26T13:03:14;3.80;98.30
18291;DHT22;9271;48.590;8.866;2023-01-26T13:05:54;4.00;98.20
18291;DHT22;9271;48.590;8.866;2023-01-26T13:08:47;3.80;98.30
18291;DHT22;9271;48.590;8.866;2023-01-26T13:11:40;4.00;98.30
18291;DHT22;9271;48.590;8.866;2023-01-26T13:14:24;3.90;98.50
18291;DHT22;9271;48.590;8.866;2023-01-26T13:16:50;3.90;98.50
18291;DHT22;9271;48.590;8.866;2023-01-26T13:19:33;3.90;98.20
18291;DHT22;9271;48.590;8.866;2023-01-26T13:22:00;3.80;98.40
18291;DHT22;9271;48.590;8.866;2023-01-26T13:24:44;3.70;98.60
18291;DHT22;9271;48.590;8.866;2023-01-26T13:27:34;3.50;98.40
18291;DHT22;9271;48.590;8.866;2023-01-26T13:30:28;3.60;98.30
18291;DHT22;9271;48.590;8.866;2023-01-26T13:33:04;3.80;98.10
18291;DHT22;9271;48.590;8.866;2023-01-26T13:35:34;3.70;98.40
18291;DHT22;9271;48.590;8.866;2023-01-26T13:38:08;3.60;99.00
18291;DHT22;9271;48.590;8.866;2023-01-26T13:40:41;3.60;98.80
18291;DHT22;9271;48.590;8.866;2023-01-26T13:43:14;3.70;98.80
18291;DHT22;9271;48.590;8.866;2023-01-26T13:45:49;3.60;98.80
18291;DHT22;9271;48.590;8.866;2023-01-26T13:48:31;3.60;99.10
18291;DHT22;9271;48.590;8.866;2023-01-26T13:51:00;3.70;99.20
18291;DHT22;9271;48.590;8.866;2023-01-26T13:53:34;3.80;98.90
18291;DHT22;9271;48.590;8.866;2023-01-26T13:56:05;3.90;98.60
18291;DHT22;9271;48.590;8.866;2023-01-26T13:58:32;3.80;98.80
18291;DHT22;9271;48.590;8.866;2023-01-26T14:01:00;3.60;98.60
18291;DHT22;9271;48.590;8.866;2023-01-26T14:03:27;3.60;98.80
18291;DHT22;9271;48.590;8.866;2023-01-26T14:05:58;3.70;98.70
18291;DHT22;9271;48.590;8.866;2023-01-26T14:08:26;3.50;98.80
18291;DHT22;9271;48.590;8.866;2023-01-26T14:10:52;3.30;99.00
18291;DHT22;9271;48.590;8.866;2023-01-26T14:13:26;3.40;99.20
18291;DHT22;9271;48.590;8.866;2023-01-26T14:15:55;3.50;99.10
18291;DHT22;9271;48.590;8.866;2023-01-26T14:18:22;3.60;99.10
18291;DHT22;9271;48.590;8.866;2023-01-26T14:20:49;3.50;99.00
18291;DHT22;9271;48.590;8.866;2023-01-26T14:23:26;3.60;98.80
18291;DHT22;9271;48.590;8.866;2023-01-26T14:25:56;3.60;98.70
18291;DHT22;9271;48.590;8.866;2023-01-26T14:28:27;3.60;98.70
18291;DHT22;9271;48.590;8.866;2023-01-26T14:30:59;3.60;98.60
18291;DHT22;9271;48.590;8.866;2023-01-26T14:33:27;3.60;98.90
18291;DHT22;9271;48.590;8.866;2023-01-26T14:35:56;3.50;98.60
18291;DHT22;9271;48.590;8.866;2023-01-26T14:38:23;3.50;98.70
18291;DHT22;9271;48.590;8.866;2023-01-26T14:40:54;3.60;98.80
18291;DHT22;9271;48.590;8.866;2023-01-26T14:43:21;3.60;98.90
18291;DHT22;9271;48.590;8.866;2023-01-26T14:45:54;3.70;98.70
18291;DHT22;9271;48.590;8.866;2023-01-26T14:48:27;3.80;98.50
18291;DHT22;9271;48.590;8.866;2023-01-26T14:50:54;3.80;98.50
18291;DHT22;9271;48.590;8.866;2023-01-26T14:53:22;3.80;98.30
18291;DHT22;9271;48.590;8.866;2023-01-26T14:55:50;3.80;98.20
18291;DHT22;9271;48.590;8.866;2023-01-26T14:58:20;3.60;98.30
18291;DHT22;9271;48.590;8.866;2023-01-26T15:00:49;3.60;98.40
18291;DHT22;9271;48.590;8.866;2023-01-26T15:03:22;3.60;98.50
18291;DHT22;9271;48.590;8.866;2023-01-26T15:06:03;3.60;98.20
18291;DHT22;9271;48.590;8.866;2023-01-26T15:08:30;3.30;98.50
18291;DHT22;9271;48.590;8.866;2023-01-26T15:10:57;3.20;98.90
18291;DHT22;9271;48.590;8.866;2023-01-26T15:13:40;3.50;98.90
18291;DHT22;9271;48.590;8.866;2023-01-26T15:16:15;3.40;98.60
18291;DHT22;9271;48.590;8.866;2023-01-26T15:18:43;3.40;99.00
18291;DHT22;9271;48.590;8.866;2023-01-26T15:21:12;3.30;99.00
18291;DHT22;9271;48.590;8.866;2023-01-26T15:23:41;3.10;99.20
18291;DHT22;9271;48.590;8.866;2023-01-26T15:26:12;3.20;99.10
18291;DHT22;9271;48.590;8.866;2023-01-26T15:28:39;3.10;99.30
18291;DHT22;9271;48.590;8.866;2023-01-26T15:31:06;3.00;99.30
18291;DHT22;9271;48.590;8.866;2023-01-26T15:33:47;3.00;99.60
18291;DHT22;9271;48.590;8.866;2023-01-26T15:36:32;3.10;99.50
18291;DHT22;9271;48.590;8.866;2023-01-26T15:39:08;3.30;99.40
18291;DHT22;9271;48.590;8.866;2023-01-26T15:41:35;3.40;99.10
18291;DHT22;9271;48.590;8.866;2023-01-26T15:44:02;3.30;99.20
18291;DHT22;9271;48.590;8.866;2023-01-26T15:46:28;3.40;99.10
18291;DHT22;9271;48.590;8.866;2023-01-26T15:48:56;3.30;99.30
18291;DHT22;9271;48.590;8.866;2023-01-26T15:51:23;3.20;99.50
18291;DHT22;9271;48.590;8.866;2023-01-26T15:53:49;3.20;99.10
18291;DHT22;9271;48.590;8.866;2023-01-26T15:56:16;3.00;98.90
18291;DHT22;9271;48.590;8.866;2023-01-26T15:58:43;2.90;99.70
18291;DHT22;9271;48.590;8.866;2023-01-26T16:01:16;3.00;99.50
18291;DHT22;9271;48.590;8.866;2023-01-26T16:03:44;3.10;99.50
18291;DHT22;9271;48.590;8.866;2023-01-26T16:06:25;3.20;99.40
18291;DHT22;9271;48.590;8.866;2023-01-26T16:08:53;3.20;99.90
18291;DHT22;9271;48.590;8.866;2023-01-26T16:11:20;3.10;99.40
18291;DHT22;9271;48.590;8.866;2023-01-26T16:13:47;3.10;99.70
18291;DHT22;9271;48.590;8.866;2023-01-26T16:16:15;3.10;99.70
18291;DHT22;9271;48.590;8.866;2023-01-26T16:18:42;3.10;99.70
18291;DHT22;9271;48.590;8.866;2023-01-26T16:21:17;3.10;99.60
18291;DHT22;9271;48.590;8.866;2023-01-26T16:23:46;3.10;99.90
18291;DHT22;9271;48.590;8.866;2023-01-26T16:26:14;3.20;99.40